Time;durP1;ratioP1;P1;durP2;ratioP2;P2;SDS_P1;SDS_P2;PMS_P1;PMS_P2;Temp;Humidity;BMP_temperature;BMP_pressure;BME280_temperature;BME280_humidity;BME280_pressure;Samples;Min_cycle;Max_cycle;Signal;HPM_P1;HPM_P2
2023/02/13 00:01:59;;;;;;;53.33;33.97;;;8.70;99.90;;;;;;5093724;28;20675;-78
2023/02/13 00:04:27;;;;;;;52.80;33.50;;;8.60;99.90;;;;;;5093811;28;20201;-78
2023/02/13 00:06:53;;;;;;;53.40;33.43;;;8.60;99.90;;;;;;5093975;28;20283;-78
2023/02/13 00:09:22;;;;;;;51.77;32.40;;;8.50;99.90;;;;;;5093693;28;20232;-78
2023/02/13 00:11:48;;;;;;;56.73;33.70;;;8.50;99.90;;;;;;5093195;28;20205;-79
2023/02/13 00:14:15;;;;;;;59.43;33.93;;;8.40;99.90;;;;;;5093423;28;20231;-78
2023/02/13 00:16:42;;;;;;;51.57;32.93;;;8.40;99.90;;;;;;5093469;28;20205;-78
2023/02/13 00:19:09;;;;;;;57.30;34.53;;;8.20;99.90;;;;;;5093391;28;20205;-78
2023/02/13 00:21:36;;;;;;;61.10;34.87;;;8.10;99.90;;;;;;5093561;28;20208;-80
2023/02/13 00:24:03;;;;;;;59.33;34.97;;;8.10;99.90;;;;;;5093698;28;20637;-79
2023/02/13 00:26:31;;;;;;;57.03;33.03;;;8.00;99.90;;;;;;5093078;28;20648;-79
2023/02/13 00:28:58;;;;;;;57.50;33.73;;;8.00;99.90;;;;;;5093427;28;20221;-78
2023/02/13 00:31:25;;;;;;;62.63;35.23;;;7.90;99.90;;;;;;5093762;28;20209;-79
2023/02/13 00:33:52;;;;;;;55.77;33.00;;;7.90;99.90;;;;;;5093830;28;20683;-78
2023/02/13 00:36:21;;;;;;;57.93;34.07;;;7.80;99.90;;;;;;5093781;28;20209;-79
2023/02/13 00:38:49;;;;;;;64.13;35.27;;;7.80;99.90;;;;;;5094179;28;20197;-79
2023/02/13 00:41:18;;;;;;;61.43;35.83;;;7.70;99.90;;;;;;5092809;28;20636;-79
2023/02/13 00:43:47;;;;;;;64.63;36.50;;;7.70;99.90;;;;;;5093661;28;20209;-77
2023/02/13 00:46:16;;;;;;;62.03;34.40;;;7.60;99.90;;;;;;5093634;28;20671;-79
2023/02/13 00:48:43;;;;;;;59.90;34.93;;;7.50;99.90;;;;;;5093432;28;20282;-79
2023/02/13 00:51:10;;;;;;;63.47;35.77;;;7.40;99.90;;;;;;5093759;28;20198;-81
2023/02/13 00:53:38;;;;;;;61.93;35.93;;;7.30;99.90;;;;;;5093581;28;20193;-80
2023/02/13 00:56:06;;;;;;;65.67;36.47;;;7.30;99.90;;;;;;5093266;28;20208;-79
2023/02/13 00:58:33;;;;;;;58.53;35.90;;;7.30;99.90;;;;;;5094083;28;20193;-81
2023/02/13 01:01:01;;;;;;;66.17;36.50;;;7.30;99.90;;;;;;5093861;28;20205;-80
2023/02/13 01:03:29;;;;;;;69.87;36.60;;;7.30;99.90;;;;;;5093097;28;20213;-82
2023/02/13 01:05:56;;;;;;;67.67;36.27;;;7.30;99.90;;;;;;5093880;28;20213;-81
2023/02/13 01:08:23;;;;;;;68.17;37.13;;;7.10;99.90;;;;;;5094866;28;20270;-81
2023/02/13 01:10:50;;;;;;;68.90;37.70;;;7.10;99.90;;;;;;5097369;28;20205;-82
2023/02/13 01:13:18;;;;;;;67.43;34.90;;;7.10;99.90;;;;;;5098393;28;20215;-80
2023/02/13 01:15:51;;;;;;;67.40;36.50;;;7.10;99.90;;;;;;5098315;28;20727;-84
2023/02/13 01:18:21;;;;;;;62.63;36.10;;;6.90;99.90;;;;;;5098319;28;20208;-85
2023/02/13 01:20:59;;;;;;;63.50;35.50;;;6.90;99.90;;;;;;5098512;28;20276;-84
2023/02/13 01:23:30;;;;;;;67.30;35.57;;;6.90;99.90;;;;;;5098597;28;20208;-86
2023/02/13 01:25:58;;;;;;;71.60;36.53;;;6.90;99.90;;;;;;5098399;28;20196;-83
2023/02/13 01:28:28;;;;;;;69.73;37.20;;;6.80;99.90;;;;;;5098765;28;20700;-85
2023/02/13 01:30:57;;;;;;;68.60;36.53;;;6.80;99.90;;;;;;5098287;28;20571;-80
2023/02/13 01:33:27;;;;;;;74.43;36.83;;;6.80;99.90;;;;;;5098175;28;20212;-79
2023/02/13 01:35:55;;;;;;;71.87;37.87;;;6.70;99.90;;;;;;5097598;28;20193;-79
2023/02/13 01:38:21;;;;;;;67.60;35.30;;;6.80;99.90;;;;;;5097590;28;20209;-78
2023/02/13 01:40:51;;;;;;;69.63;36.97;;;6.60;99.90;;;;;;5098034;28;20532;-78
2023/02/13 01:43:18;;;;;;;69.37;37.03;;;6.60;99.90;;;;;;5098166;28;20205;-79
2023/02/13 01:45:48;;;;;;;72.63;37.27;;;6.50;99.90;;;;;;5098287;28;20201;-80
2023/02/13 01:48:18;;;;;;;74.60;37.77;;;6.40;99.90;;;;;;5097502;28;20234;-82
2023/02/13 01:50:51;;;;;;;75.33;37.53;;;6.40;99.90;;;;;;5097931;28;20782;-81
2023/02/13 01:53:25;;;;;;;69.00;36.93;;;6.40;99.90;;;;;;5097618;28;20205;-80
2023/02/13 01:55:55;;;;;;;68.30;36.77;;;6.40;99.90;;;;;;5097668;28;20303;-78
2023/02/13 01:58:27;;;;;;;65.00;36.60;;;6.20;99.90;;;;;;5097438;28;20190;-81
2023/02/13 02:00:54;;;;;;;71.47;35.77;;;6.20;99.90;;;;;;5097806;28;20212;-81
2023/02/13 02:03:27;;;;;;;71.17;37.27;;;6.20;99.90;;;;;;5097609;28;20204;-82
2023/02/13 02:05:57;;;;;;;70.10;35.97;;;6.10;99.90;;;;;;5099229;28;20227;-79
2023/02/13 02:08:25;;;;;;;75.57;37.47;;;6.20;99.90;;;;;;5097020;28;20220;-80
2023/02/13 02:10:52;;;;;;;66.10;35.47;;;6.10;99.90;;;;;;5097725;28;20208;-80
2023/02/13 02:13:21;;;;;;;71.70;36.57;;;6.00;99.90;;;;;;5097657;28;20205;-82
2023/02/13 02:15:54;;;;;;;65.37;34.20;;;6.00;99.90;;;;;;5097895;28;20185;-80
2023/02/13 02:18:24;;;;;;;72.33;36.27;;;6.00;99.90;;;;;;5098438;28;20205;-81
2023/02/13 02:21:24;;;;;;;71.77;37.93;;;6.00;99.90;;;;;;5098250;28;20197;-84
2023/02/13 02:24:41;;;;;;;67.53;35.57;;;5.90;99.90;;;;;;5098121;28;20287;-81
2023/02/13 02:27:56;;;;;;;69.00;34.73;;;5.90;99.90;;;;;;5100920;28;20206;-80
2023/02/13 02:30:56;;;;;;;64.80;34.17;;;5.90;99.90;;;;;;5054142;28;20716;-80
2023/02/13 02:33:35;;;;;;;71.17;35.70;;;5.90;99.90;;;;;;5099670;28;20288;-83
2023/02/13 02:36:17;;;;;;;78.10;38.17;;;5.80;99.90;;;;;;5099555;28;20283;-78
2023/02/13 02:39:01;;;;;;;68.10;34.73;;;5.80;99.90;;;;;;5100077;28;20201;-79
2023/02/13 02:41:41;;;;;;;78.87;37.33;;;5.70;99.90;;;;;;5100463;28;20204;-80
2023/02/13 02:44:31;;;;;;;67.33;35.47;;;5.50;99.90;;;;;;5099676;28;20656;-82
2023/02/13 02:50:03;;;;;;;68.57;36.37;;;5.50;99.90;;;;;;5100890;28;20706;-81
2023/02/13 02:52:52;;;;;;;69.90;35.93;;;5.50;99.90;;;;;;5100552;28;20213;-80
2023/02/13 02:55:29;;;;;;;69.77;35.53;;;5.50;99.90;;;;;;5101253;28;20193;-79
2023/02/13 03:06:27;;;;;;;75.60;37.30;;;5.40;99.90;;;;;;5053695;28;20283;-84
2023/02/13 03:14:33;;;;;;;68.73;33.87;;;5.20;99.90;;;;;;5096596;28;20225;-84
2023/02/13 03:22:57;;;;;;;79.70;38.83;;;5.00;99.90;;;;;;5096623;28;20690;-81
2023/02/13 03:25:32;;;;;;;73.83;35.57;;;5.00;99.90;;;;;;5096105;28;20208;-80
2023/02/13 03:31:00;;;;;;;69.90;35.10;;;4.70;99.90;;;;;;5093828;28;20207;-79
2023/02/13 03:33:49;;;;;;;73.57;35.90;;;4.70;99.90;;;;;;5094619;28;20207;-80
2023/02/13 03:39:19;;;;;;;67.53;34.23;;;4.90;99.90;;;;;;5094609;28;20196;-79
2023/02/13 03:41:51;;;;;;;73.20;34.23;;;4.60;99.90;;;;;;5094001;28;20204;-80
2023/02/13 03:44:26;;;;;;;67.23;33.37;;;4.70;99.90;;;;;;5094372;28;20659;-79
2023/02/13 03:46:57;;;;;;;91.82;48.15;;;4.70;99.90;;;;;;5093349;28;20789;-79
2023/02/13 03:52:18;;;;;;;71.67;34.67;;;4.60;99.90;;;;;;5094215;28;20201;-80
2023/02/13 04:00:28;;;;;;;69.73;34.27;;;4.70;99.90;;;;;;5093869;28;20191;-80
2023/02/13 04:03:01;;;;;;;70.03;34.97;;;4.60;99.90;;;;;;5091395;28;20687;-80
2023/02/13 04:05:32;;;;;;;71.13;34.43;;;4.50;99.90;;;;;;5082029;28;20235;-80
2023/02/13 04:07:58;;;;;;;72.40;35.60;;;4.60;99.90;;;;;;5086823;28;20546;-79
2023/02/13 04:10:30;;;;;;;69.57;34.87;;;4.50;99.90;;;;;;5093014;28;20233;-78
2023/02/13 04:13:03;;;;;;;70.97;35.43;;;4.50;99.90;;;;;;5093516;28;20205;-79
2023/02/13 04:15:34;;;;;;;73.83;34.53;;;4.40;99.90;;;;;;5084135;28;20684;-78
2023/02/13 04:18:08;;;;;;;72.43;34.93;;;4.40;99.90;;;;;;5089472;28;20204;-80
2023/02/13 04:20:35;;;;;;;83.63;35.50;;;4.40;99.90;;;;;;5093256;28;20217;-79
2023/02/13 04:23:06;;;;;;;67.60;35.97;;;4.40;99.90;;;;;;5093666;28;20288;-80
2023/02/13 04:25:35;;;;;;;65.10;32.10;;;4.40;99.90;;;;;;5093107;28;20998;-78
2023/02/13 04:28:02;;;;;;;74.23;35.93;;;4.30;99.90;;;;;;5092839;28;20448;-79
2023/02/13 04:30:29;;;;;;;75.10;35.40;;;4.30;99.90;;;;;;5092725;28;20232;-81
2023/02/13 04:32:56;;;;;;;72.03;34.23;;;4.30;99.90;;;;;;5092958;28;20469;-81
2023/02/13 04:35:23;;;;;;;71.30;34.80;;;4.30;99.90;;;;;;5093133;28;20204;-81
2023/02/13 04:37:49;;;;;;;68.93;34.17;;;4.30;99.90;;;;;;5093036;28;20193;-82
2023/02/13 04:40:16;;;;;;;77.17;36.47;;;4.20;99.90;;;;;;5093237;28;20660;-81
2023/02/13 04:42:47;;;;;;;70.07;33.90;;;4.10;99.90;;;;;;5092247;28;20216;-82
2023/02/13 04:45:14;;;;;;;76.17;34.80;;;4.10;99.90;;;;;;5092742;28;20664;-80
2023/02/13 04:47:42;;;;;;;73.20;36.27;;;4.00;99.90;;;;;;5092345;28;20441;-82
2023/02/13 04:50:10;;;;;;;69.03;34.90;;;3.90;99.90;;;;;;5092447;28;20984;-81
2023/02/13 04:52:40;;;;;;;74.10;35.77;;;3.90;99.90;;;;;;5093118;28;20649;-83
2023/02/13 04:55:07;;;;;;;77.47;35.67;;;3.90;99.90;;;;;;5102987;28;20458;-80
2023/02/13 04:57:34;;;;;;;80.80;37.20;;;4.00;99.90;;;;;;5109234;28;20453;-81
2023/02/13 05:00:02;;;;;;;72.90;36.13;;;4.00;99.90;;;;;;5108375;28;20444;-82
2023/02/13 05:02:29;;;;;;;69.40;34.17;;;4.00;99.90;;;;;;5108967;28;20525;-80
2023/02/13 05:04:55;;;;;;;73.70;35.73;;;3.80;99.90;;;;;;5109327;28;20537;-79
2023/02/13 05:07:22;;;;;;;75.10;35.30;;;3.80;99.90;;;;;;5109685;28;20445;-80
2023/02/13 05:09:49;;;;;;;70.80;33.47;;;3.80;99.90;;;;;;5083767;28;20473;-80
2023/02/13 05:12:16;;;;;;;73.33;32.63;;;3.80;99.90;;;;;;5097665;28;20820;-80
2023/02/13 05:14:43;;;;;;;70.97;34.37;;;3.80;99.90;;;;;;5097626;28;20461;-82
2023/02/13 05:17:12;;;;;;;76.57;35.43;;;3.80;99.90;;;;;;5098984;28;20201;-82
2023/02/13 05:19:39;;;;;;;68.27;33.73;;;3.80;99.90;;;;;;5097252;28;20438;-83
2023/02/13 05:24:50;;;;;;;72.17;34.33;;;3.70;99.90;;;;;;5096109;28;20471;-78
2023/02/13 05:27:17;;;;;;;71.60;34.43;;;3.60;99.90;;;;;;5093401;28;20441;-80
2023/02/13 05:29:44;;;;;;;67.57;33.57;;;3.50;99.90;;;;;;5095792;28;20520;-79
2023/02/13 05:32:12;;;;;;;71.53;33.83;;;3.50;99.90;;;;;;5096528;28;20452;-79
2023/02/13 05:34:39;;;;;;;74.40;34.63;;;3.50;99.90;;;;;;5096847;28;20962;-80
2023/02/13 05:37:07;;;;;;;72.00;35.93;;;3.50;99.90;;;;;;5096045;28;20526;-79
2023/02/13 05:39:38;;;;;;;68.37;34.00;;;3.50;99.90;;;;;;5097137;28;20946;-77
2023/02/13 05:42:05;;;;;;;74.03;34.37;;;3.60;99.90;;;;;;5096600;28;20913;-78
2023/02/13 05:44:32;;;;;;;82.60;43.15;;;3.50;99.90;;;;;;5098700;28;20434;-78
2023/02/13 05:47:00;;;;;;;72.27;35.17;;;3.50;99.90;;;;;;5099235;28;20197;-81
2023/02/13 05:49:28;;;;;;;72.90;33.60;;;3.50;99.90;;;;;;5095383;28;20228;-81
2023/02/13 05:52:02;;;;;;;71.63;34.73;;;3.40;99.90;;;;;;5099229;28;20450;-79
2023/02/13 05:54:29;;;;;;;63.80;31.40;;;3.40;99.90;;;;;;5100217;28;20438;-79
2023/02/13 05:56:56;;;;;;;70.10;32.07;;;3.30;99.90;;;;;;5089635;28;20952;-78
2023/02/13 05:59:23;;;;;;;66.83;31.87;;;3.30;99.90;;;;;;5100324;28;20524;-79
2023/02/13 06:01:51;;;;;;;66.03;32.83;;;3.40;99.90;;;;;;5100125;28;20524;-79
2023/02/13 06:04:18;;;;;;;68.17;32.27;;;3.30;99.90;;;;;;5103753;28;20464;-82
2023/02/13 06:06:46;;;;;;;61.13;30.97;;;3.30;99.90;;;;;;5102476;28;20442;-83
2023/02/13 06:09:14;;;;;;;61.93;31.53;;;3.30;99.90;;;;;;5100433;28;20457;-79
2023/02/13 06:11:42;;;;;;;59.67;30.77;;;3.20;99.90;;;;;;5086803;28;20441;-81
2023/02/13 06:14:11;;;;;;;62.27;33.20;;;3.10;99.90;;;;;;5100296;28;20548;-78
2023/02/13 06:16:40;;;;;;;60.33;31.10;;;3.10;99.90;;;;;;5101938;28;20449;-82
2023/02/13 06:19:07;;;;;;;66.30;30.43;;;2.90;99.90;;;;;;5102685;28;20448;-79
2023/02/13 06:21:36;;;;;;;60.93;29.83;;;2.90;99.90;;;;;;5102462;28;20442;-78
2023/02/13 06:24:06;;;;;;;58.20;30.07;;;2.90;99.90;;;;;;5102376;28;20441;-80
2023/02/13 06:26:35;;;;;;;61.70;30.20;;;2.90;99.90;;;;;;5101913;28;20437;-78
2023/02/13 06:29:02;;;;;;;59.03;30.30;;;3.00;99.90;;;;;;5100940;28;20434;-80
2023/02/13 06:31:29;;;;;;;58.63;28.87;;;2.90;99.90;;;;;;5099833;28;20492;-76
2023/02/13 06:33:55;;;;;;;55.10;28.83;;;2.90;99.90;;;;;;5099579;28;20450;-79
2023/02/13 06:36:22;;;;;;;56.83;29.27;;;2.90;99.90;;;;;;5103489;28;20559;-77
2023/02/13 06:38:49;;;;;;;56.50;28.53;;;2.80;99.90;;;;;;5102603;28;20505;-79
2023/02/13 06:41:21;;;;;;;63.23;28.77;;;2.80;99.90;;;;;;5103018;28;20434;-81
2023/02/13 06:43:49;;;;;;;71.27;39.77;;;2.80;99.90;;;;;;5099335;28;20430;-79
2023/02/13 06:46:15;;;;;;;67.13;32.40;;;2.90;99.90;;;;;;5097707;28;20811;-82
2023/02/13 06:48:42;;;;;;;57.53;29.57;;;2.90;99.90;;;;;;5097664;28;20437;-80
2023/02/13 06:51:09;;;;;;;57.63;28.77;;;2.80;99.90;;;;;;5096396;28;20489;-81
2023/02/13 06:53:35;;;;;;;61.07;29.17;;;2.90;99.90;;;;;;5096298;28;20449;-81
2023/02/13 06:56:05;;;;;;;55.07;27.77;;;3.00;99.90;;;;;;5095307;28;20464;-82
2023/02/13 06:58:33;;;;;;;56.97;28.90;;;2.90;99.90;;;;;;5088666;28;20462;-81
2023/02/13 07:01:01;;;;;;;58.50;27.03;;;2.80;99.90;;;;;;5085815;28;20451;-80
2023/02/13 07:03:28;;;;;;;57.17;28.70;;;2.80;99.90;;;;;;5095827;28;20453;-80
2023/02/13 07:05:55;;;;;;;53.87;28.13;;;2.80;99.90;;;;;;5090166;28;20446;-78
2023/02/13 07:08:22;;;;;;;56.93;27.77;;;2.70;99.90;;;;;;5092088;28;20446;-80
2023/02/13 07:10:49;;;;;;;57.20;29.07;;;2.70;99.90;;;;;;5098433;28;20484;-81
2023/02/13 07:13:16;;;;;;;63.15;38.15;;;2.70;99.90;;;;;;5096641;28;20856;-83
2023/02/13 07:15:44;;;;;;;60.47;31.10;;;2.80;99.90;;;;;;5095792;28;20204;-84
2023/02/13 07:18:11;;;;;;;59.23;30.87;;;2.90;99.90;;;;;;5096605;28;20912;-82
2023/02/13 07:20:38;;;;;;;56.77;28.17;;;2.80;99.90;;;;;;5097708;28;20440;-80
2023/02/13 07:23:06;;;;;;;48.40;26.90;;;2.80;99.90;;;;;;5098245;28;20445;-80
2023/02/13 07:25:33;;;;;;;52.67;25.60;;;2.80;99.90;;;;;;5096216;28;20438;-77
2023/02/13 07:28:04;;;;;;;64.47;28.33;;;2.80;99.90;;;;;;5094987;28;20469;-80
2023/02/13 07:30:31;;;;;;;55.73;27.93;;;2.90;99.90;;;;;;5094408;28;20489;-80
2023/02/13 07:33:02;;;;;;;53.57;27.93;;;2.90;99.90;;;;;;5094592;28;20450;-82
2023/02/13 07:35:32;;;;;;;52.97;27.30;;;2.90;99.90;;;;;;5092938;28;20473;-82
2023/02/13 07:38:00;;;;;;;55.80;28.33;;;3.00;99.90;;;;;;5089095;28;20466;-82
2023/02/13 07:40:26;;;;;;;61.03;32.22;;;2.90;99.90;;;;;;5089319;28;20443;-81
2023/02/13 07:42:53;;;;;;;57.03;31.63;;;2.90;99.90;;;;;;5086473;28;20216;-81
2023/02/13 07:45:20;;;;;;;54.40;27.70;;;2.90;99.90;;;;;;5094016;28;20985;-82
2023/02/13 07:47:47;;;;;;;56.33;28.10;;;2.90;99.90;;;;;;5098298;28;20537;-81
2023/02/13 07:50:15;;;;;;;52.10;26.70;;;3.10;99.90;;;;;;5093761;28;20486;-83
2023/02/13 07:52:42;;;;;;;51.33;27.27;;;2.90;99.90;;;;;;5087426;28;20925;-80
2023/02/13 07:55:12;;;;;;;49.77;27.17;;;2.90;99.90;;;;;;5078583;28;20451;-82
2023/02/13 07:57:40;;;;;;;52.90;27.33;;;2.90;99.90;;;;;;5085353;28;20439;-82
2023/02/13 08:00:09;;;;;;;57.10;26.77;;;3.00;99.90;;;;;;5078314;28;20749;-81
2023/02/13 08:02:36;;;;;;;46.73;26.33;;;3.10;99.90;;;;;;5080060;28;20437;-81
2023/02/13 08:05:03;;;;;;;58.03;34.42;;;3.20;99.90;;;;;;5077503;28;20437;-81
2023/02/13 08:07:31;;;;;;;49.50;28.20;;;3.30;99.90;;;;;;5086570;28;20316;-81
2023/02/13 08:12:42;;;;;;;51.13;27.03;;;3.40;99.90;;;;;;5093584;28;21016;-84
2023/02/13 08:15:11;;;;;;;47.00;27.43;;;3.50;99.90;;;;;;5093533;28;20466;-81
2023/02/13 08:17:39;;;;;;;51.60;26.67;;;3.40;99.90;;;;;;5095422;28;20644;-80
2023/02/13 08:20:08;;;;;;;56.20;28.57;;;3.30;99.90;;;;;;5096233;28;20964;-81
2023/02/13 08:22:39;;;;;;;52.37;27.83;;;3.50;99.90;;;;;;5098249;28;20446;-79
2023/02/13 08:25:07;;;;;;;54.67;27.80;;;3.70;99.90;;;;;;5094252;28;20451;-80
2023/02/13 08:27:33;;;;;;;54.20;29.37;;;3.80;99.90;;;;;;5087611;28;20813;-81
2023/02/13 08:30:02;;;;;;;52.73;28.03;;;4.00;99.90;;;;;;5095707;28;20201;-77
2023/02/13 08:32:28;;;;;;;56.30;29.43;;;4.10;99.90;;;;;;5094616;28;20763;-77
2023/02/13 08:34:55;;;;;;;51.70;29.20;;;4.20;99.90;;;;;;5094348;28;20458;-77
2023/02/13 08:37:24;;;;;;;56.67;28.97;;;4.20;99.90;;;;;;5094638;28;20453;-78
2023/02/13 08:39:52;;;;;;;57.60;28.90;;;4.30;99.90;;;;;;5093823;28;20197;-79
2023/02/13 08:42:19;;;;;;;54.03;28.50;;;4.40;99.90;;;;;;5094734;28;20221;-79
2023/02/13 08:44:48;;;;;;;54.60;30.57;;;4.40;99.90;;;;;;5094753;28;20216;-79
2023/02/13 08:47:15;;;;;;;55.03;29.47;;;4.50;99.90;;;;;;5094575;28;20472;-78
2023/02/13 08:49:43;;;;;;;53.50;27.90;;;4.70;99.90;;;;;;5095291;28;20569;-81
2023/02/13 08:52:10;;;;;;;50.47;28.37;;;4.70;99.90;;;;;;5096297;28;20237;-77
2023/02/13 08:54:37;;;;;;;50.30;27.60;;;4.90;99.90;;;;;;5096704;28;20205;-78
2023/02/13 08:57:05;;;;;;;50.87;28.80;;;5.00;99.90;;;;;;5083732;28;20209;-80
2023/02/13 08:59:34;;;;;;;49.93;28.40;;;5.10;99.90;;;;;;5090446;28;20208;-80
2023/02/13 09:02:01;;;;;;;49.60;27.97;;;5.20;99.90;;;;;;5100633;28;20294;-78
2023/02/13 09:04:30;;;;;;;46.33;27.10;;;5.20;99.90;;;;;;5098368;28;20553;-78
2023/02/13 09:06:57;;;;;;;51.63;28.03;;;5.20;99.90;;;;;;5097187;28;20280;-81
2023/02/13 09:09:26;;;;;;;48.97;26.87;;;5.30;99.90;;;;;;5098163;28;20192;-80
2023/02/13 09:11:56;;;;;;;50.00;27.27;;;5.40;99.90;;;;;;5097394;28;20225;-81
2023/02/13 09:14:24;;;;;;;51.73;27.90;;;5.50;99.90;;;;;;5096256;28;20224;-81
2023/02/13 09:16:51;;;;;;;59.10;28.97;;;5.60;99.90;;;;;;5095352;28;20235;-80
2023/02/13 09:19:20;;;;;;;50.90;27.60;;;5.70;99.90;;;;;;5083078;28;20293;-80
2023/02/13 09:21:47;;;;;;;44.57;26.60;;;5.70;99.90;;;;;;5096109;28;20193;-81
2023/02/13 09:24:16;;;;;;;47.13;26.80;;;5.90;99.90;;;;;;5096327;28;20648;-81
2023/02/13 09:26:43;;;;;;;46.73;26.63;;;6.00;99.90;;;;;;5096287;28;20262;-79
2023/02/13 09:29:11;;;;;;;45.53;27.43;;;6.20;99.90;;;;;;5096250;28;20300;-80
2023/02/13 09:31:39;;;;;;;46.63;26.37;;;6.30;99.90;;;;;;5099954;28;20229;-82
2023/02/13 09:34:06;;;;;;;52.37;26.63;;;6.40;99.90;;;;;;5099920;28;20213;-77
2023/02/13 09:36:33;;;;;;;43.97;24.10;;;6.50;99.90;;;;;;5098700;28;20682;-80
2023/02/13 09:39:00;;;;;;;41.13;23.83;;;6.60;99.90;;;;;;5098923;28;20246;-81
2023/02/13 09:41:29;;;;;;;39.80;23.70;;;6.80;99.90;;;;;;5097698;28;20672;-81
2023/02/13 09:44:00;;;;;;;39.87;23.20;;;6.80;99.90;;;;;;5098333;28;20213;-81
2023/02/13 09:46:32;;;;;;;35.23;22.77;;;7.00;99.90;;;;;;5097953;28;20235;-80
2023/02/13 09:49:08;;;;;;;35.90;22.10;;;7.10;99.90;;;;;;5098502;28;20282;-79
2023/02/13 09:51:35;;;;;;;34.57;21.83;;;7.20;99.90;;;;;;5098094;28;20266;-81
2023/02/13 09:54:04;;;;;;;34.00;22.07;;;7.30;99.90;;;;;;5098089;28;20204;-82
2023/02/13 09:56:40;;;;;;;36.43;21.87;;;7.30;99.90;;;;;;5097184;28;20205;-79
2023/02/13 09:59:17;;;;;;;34.50;20.77;;;7.40;99.90;;;;;;5096709;28;20656;-79
2023/02/13 10:01:47;;;;;;;33.97;20.63;;;7.60;99.90;;;;;;5083817;28;20209;-82
2023/02/13 10:04:28;;;;;;;33.60;18.80;;;7.80;99.90;;;;;;5096272;28;20206;-85
2023/02/13 10:07:10;;;;;;;33.70;20.70;;;7.90;99.90;;;;;;5096279;28;20200;-80
2023/02/13 10:09:44;;;;;;;29.47;19.07;;;8.00;99.90;;;;;;5095826;28;20201;-79
2023/02/13 10:12:25;;;;;;;30.33;18.40;;;8.20;99.90;;;;;;5095975;28;20232;-80
2023/02/13 10:15:10;;;;;;;29.83;18.00;;;8.30;99.90;;;;;;5096273;28;20221;-79
2023/02/13 10:17:40;;;;;;;24.73;16.83;;;8.40;99.90;;;;;;5096153;28;20201;-79
2023/02/13 10:20:22;;;;;;;26.43;16.57;;;8.50;99.90;;;;;;5095784;28;20213;-80
2023/02/13 10:22:54;;;;;;;24.20;15.97;;;8.50;99.90;;;;;;5096212;28;20193;-77
2023/02/13 10:25:25;;;;;;;22.03;15.80;;;8.50;99.90;;;;;;5095120;28;20206;-81
2023/02/13 10:27:55;;;;;;;20.57;15.07;;;8.60;99.90;;;;;;5095844;28;20197;-81
2023/02/13 10:30:26;;;;;;;21.07;14.37;;;8.70;99.90;;;;;;5095231;28;20205;-79
2023/02/13 10:35:43;;;;;;;24.33;15.83;;;9.00;99.90;;;;;;5094600;28;20201;-81
2023/02/13 10:38:16;;;;;;;28.40;17.53;;;9.10;99.90;;;;;;5094592;28;20299;-78
2023/02/13 10:40:54;;;;;;;28.43;18.90;;;9.10;99.90;;;;;;5094834;28;20201;-85
2023/02/13 10:43:26;;;;;;;25.83;17.83;;;9.20;99.90;;;;;;5094871;28;20690;-80
2023/02/13 10:46:10;;;;;;;26.07;17.70;;;9.30;99.90;;;;;;5095217;28;20197;-81
2023/02/13 10:48:58;;;;;;;24.93;16.83;;;9.40;99.90;;;;;;5095062;28;20283;-79
2023/02/13 10:51:34;;;;;;;23.57;16.80;;;9.20;99.90;;;;;;5094437;28;20232;-79
2023/02/13 10:54:22;;;;;;;28.30;17.53;;;9.10;99.90;;;;;;5095004;28;20200;-80
2023/02/13 10:56:55;;;;;;;26.53;17.57;;;9.10;99.90;;;;;;5095055;28;20192;-79
2023/02/13 10:59:37;;;;;;;24.73;17.57;;;9.10;99.90;;;;;;5094770;28;20201;-79
2023/02/13 11:02:21;;;;;;;27.60;17.93;;;9.20;99.90;;;;;;5095025;28;20205;-78
2023/02/13 11:04:49;;;;;;;26.00;18.07;;;9.20;99.90;;;;;;5081194;28;20204;-80
2023/02/13 11:07:21;;;;;;;26.17;18.40;;;9.20;99.90;;;;;;5094653;28;20751;-78
2023/02/13 11:09:52;;;;;;;26.90;18.17;;;9.00;99.90;;;;;;5094525;28;20201;-80
2023/02/13 11:12:28;;;;;;;27.20;18.33;;;9.20;99.90;;;;;;5093741;28;20266;-80
2023/02/13 11:14:57;;;;;;;29.83;19.23;;;9.40;99.90;;;;;;5094529;28;20220;-79
2023/02/13 11:17:26;;;;;;;28.80;19.17;;;9.40;99.90;;;;;;5094006;28;20197;-80
2023/02/13 11:19:55;;;;;;;29.47;18.20;;;9.50;99.90;;;;;;5093938;28;20201;-81
2023/02/13 11:22:32;;;;;;;27.03;18.13;;;9.60;99.90;;;;;;5094237;28;20204;-79
2023/02/13 11:25:02;;;;;;;28.07;18.37;;;9.80;99.90;;;;;;5094343;28;20568;-80
2023/02/13 11:27:33;;;;;;;27.00;18.73;;;10.00;99.90;;;;;;5094479;28;20205;-80
2023/02/13 11:30:02;;;;;;;24.90;17.80;;;10.00;99.90;;;;;;5094052;28;20201;-80
2023/02/13 11:32:30;;;;;;;26.17;18.20;;;10.10;99.90;;;;;;5093993;28;20228;-78
2023/02/13 11:34:59;;;;;;;24.77;17.53;;;10.00;99.90;;;;;;5093213;28;20671;-78
2023/02/13 11:37:28;;;;;;;24.90;17.90;;;10.20;99.90;;;;;;5094461;28;20290;-80
2023/02/13 11:39:58;;;;;;;28.60;19.03;;;10.10;99.90;;;;;;5090936;28;20206;-82
2023/02/13 11:42:28;;;;;;;26.07;17.37;;;10.20;99.90;;;;;;5094082;28;20247;-81
2023/02/13 11:45:01;;;;;;;23.70;16.43;;;10.30;99.90;;;;;;5094240;28;20508;-80
2023/02/13 11:47:37;;;;;;;26.50;17.67;;;10.10;99.90;;;;;;5092358;28;20283;-78
2023/02/13 11:50:05;;;;;;;24.63;17.57;;;10.10;99.90;;;;;;5092047;28;20572;-80
2023/02/13 11:52:34;;;;;;;27.97;17.63;;;10.10;99.90;;;;;;5091682;28;20226;-81
2023/02/13 11:55:06;;;;;;;26.17;16.57;;;10.10;99.90;;;;;;5092855;28;20234;-80
2023/02/13 11:57:35;;;;;;;23.97;17.53;;;10.20;99.90;;;;;;5092857;28;20194;-80
2023/02/13 12:00:25;;;;;;;25.47;18.13;;;10.10;99.90;;;;;;5093142;28;20198;-80
2023/02/13 12:02:52;;;;;;;26.90;18.13;;;10.20;99.90;;;;;;5091483;28;20202;-83
2023/02/13 12:05:22;;;;;;;23.20;16.97;;;10.40;99.90;;;;;;5093044;28;20205;-80
2023/02/13 12:07:49;;;;;;;22.33;16.60;;;10.50;99.90;;;;;;5093276;28;20225;-80
2023/02/13 12:10:22;;;;;;;26.30;17.73;;;10.60;99.90;;;;;;5084724;28;20234;-80
2023/02/13 12:12:54;;;;;;;23.63;17.13;;;10.60;99.90;;;;;;5089099;28;20222;-79
2023/02/13 12:15:23;;;;;;;24.13;17.03;;;10.80;99.90;;;;;;5093214;28;20670;-80
2023/02/13 12:18:06;;;;;;;27.30;17.60;;;10.80;99.90;;;;;;5084750;28;20252;-80
2023/02/13 12:20:39;;;;;;;21.47;15.80;;;10.60;99.90;;;;;;5091090;28;20659;-79
2023/02/13 12:23:17;;;;;;;22.47;15.97;;;10.70;99.90;;;;;;5092798;28;20290;-80
2023/02/13 12:25:57;;;;;;;21.33;15.23;;;10.80;99.90;;;;;;5092627;28;20204;-80
2023/02/13 12:28:34;;;;;;;23.00;15.30;;;10.80;99.90;;;;;;5092581;28;20206;-79
2023/02/13 12:31:38;;;;;;;22.37;15.13;;;11.00;99.90;;;;;;5092258;28;20198;-79
2023/02/13 12:34:38;;;;;;;19.97;14.60;;;11.10;99.90;;;;;;5089989;28;20208;-79
2023/02/13 12:37:24;;;;;;;18.40;14.87;;;11.20;99.90;;;;;;5089163;28;20203;-79
2023/02/13 12:40:03;;;;;;;19.33;14.70;;;11.30;99.90;;;;;;5092290;28;20199;-80
2023/02/13 12:42:43;;;;;;;20.03;15.53;;;11.40;99.90;;;;;;5092672;28;20539;-80
2023/02/13 12:45:28;;;;;;;19.33;15.40;;;11.10;99.90;;;;;;5092717;28;20563;-81
2023/02/13 12:48:10;;;;;;;21.67;15.27;;;11.30;99.90;;;;;;5092489;28;20204;-83
2023/02/13 12:50:52;;;;;;;18.97;14.47;;;11.50;99.90;;;;;;5093025;28;20208;-80
2023/02/13 12:53:31;;;;;;;22.07;15.27;;;11.60;99.90;;;;;;5092991;28;20298;-81
2023/02/13 12:56:19;;;;;;;19.47;15.37;;;11.70;99.90;;;;;;5081636;28;20209;-82
2023/02/13 12:59:00;;;;;;;20.20;15.63;;;11.80;99.90;;;;;;5092293;28;20207;-80
2023/02/13 13:01:56;;;;;;;20.30;14.10;;;11.80;99.90;;;;;;5091981;28;20200;-79
2023/02/13 13:04:32;;;;;;;17.50;13.20;;;11.80;99.90;;;;;;5089089;28;20210;-80
2023/02/13 13:07:16;;;;;;;17.60;14.13;;;11.70;99.90;;;;;;5091015;28;20204;-81
2023/02/13 13:10:00;;;;;;;19.57;14.03;;;11.70;99.90;;;;;;5092299;28;20209;-81
2023/02/13 13:12:49;;;;;;;20.17;14.13;;;11.60;99.90;;;;;;5091852;28;20699;-80
2023/02/13 13:15:25;;;;;;;19.00;14.80;;;11.90;99.90;;;;;;5091985;28;20223;-81
2023/02/13 13:18:03;;;;;;;17.80;14.33;;;11.90;99.90;;;;;;5092436;28;20655;-81
2023/02/13 13:20:55;;;;;;;20.20;14.47;;;11.90;99.90;;;;;;5092597;28;20215;-82
2023/02/13 13:23:27;;;;;;;19.77;14.53;;;11.90;99.90;;;;;;5092512;28;20216;-81
2023/02/13 13:26:05;;;;;;;19.00;14.13;;;11.90;99.90;;;;;;5092797;28;20212;-82
2023/02/13 13:28:37;;;;;;;16.93;14.10;;;11.80;99.90;;;;;;5093010;28;20215;-82
2023/02/13 13:31:06;;;;;;;19.70;14.07;;;12.00;99.90;;;;;;5092141;28;20227;-81
2023/02/13 13:33:34;;;;;;;21.53;15.23;;;12.10;99.90;;;;;;5078638;28;20232;-81
2023/02/13 13:36:09;;;;;;;19.08;15.30;;;12.20;99.90;;;;;;5091811;28;20936;-82
2023/02/13 13:38:45;;;;;;;19.17;14.83;;;12.00;99.90;;;;;;5092652;28;20573;-83
2023/02/13 13:41:17;;;;;;;18.57;14.03;;;12.10;99.90;;;;;;5092340;28;20212;-81
2023/02/13 13:44:12;;;;;;;21.47;14.27;;;12.20;99.90;;;;;;5091833;28;20219;-81